sensor_id;sensor_type;location;lat;lon;timestamp;pressure;altitude;pressure_sealevel;temperature;humidity
64158;BME280;50449;51.528;5.076;2023-04-27T00:00:56;101965.84;;;14.80;45.54
64158;BME280;50449;51.528;5.076;2023-04-27T00:03:21;101956.03;;;14.79;45.49
64158;BME280;50449;51.528;5.076;2023-04-27T00:05:47;101952.75;;;14.77;45.37
64158;BME280;50449;51.528;5.076;2023-04-27T00:08:12;101961.13;;;14.75;45.74
64158;BME280;50449;51.528;5.076;2023-04-27T00:10:38;101961.38;;;14.74;45.62
64158;BME280;50449;51.528;5.076;2023-04-27T00:13:03;101964.34;;;14.72;45.53
64158;BME280;50449;51.528;5.076;2023-04-27T00:15:29;101970.00;;;14.70;45.60
64158;BME280;50449;51.528;5.076;2023-04-27T00:17:54;101970.50;;;14.67;45.30
64158;BME280;50449;51.528;5.076;2023-04-27T00:20:21;101969.91;;;14.65;45.53
64158;BME280;50449;51.528;5.076;2023-04-27T00:22:49;101968.25;;;14.64;45.25
64158;BME280;50449;51.528;5.076;2023-04-27T00:25:14;101967.66;;;14.62;45.37
64158;BME280;50449;51.528;5.076;2023-04-27T00:27:39;101967.06;;;14.60;45.59
64158;BME280;50449;51.528;5.076;2023-04-27T00:30:05;101962.72;;;14.59;45.58
64158;BME280;50449;51.528;5.076;2023-04-27T00:32:32;101955.00;;;14.56;45.52
64158;BME280;50449;51.528;5.076;2023-04-27T00:34:57;101964.25;;;14.55;45.80
64158;BME280;50449;51.528;5.076;2023-04-27T00:37:23;101959.03;;;14.54;45.59
64158;BME280;50449;51.528;5.076;2023-04-27T00:39:48;101956.56;;;14.52;45.59
64158;BME280;50449;51.528;5.076;2023-04-27T00:42:13;101952.16;;;14.51;45.48
64158;BME280;50449;51.528;5.076;2023-04-27T00:44:43;101954.06;;;14.50;45.21
64158;BME280;50449;51.528;5.076;2023-04-27T00:47:09;101959.16;;;14.47;45.39
64158;BME280;50449;51.528;5.076;2023-04-27T00:49:35;101952.06;;;14.46;45.55
64158;BME280;50449;51.528;5.076;2023-04-27T00:52:01;101958.78;;;14.43;45.32
64158;BME280;50449;51.528;5.076;2023-04-27T00:54:26;101960.09;;;14.41;45.42
64158;BME280;50449;51.528;5.076;2023-04-27T00:56:52;101959.50;;;14.39;45.31
64158;BME280;50449;51.528;5.076;2023-04-27T00:59:18;101964.13;;;14.38;45.34
64158;BME280;50449;51.528;5.076;2023-04-27T01:01:45;101960.81;;;14.36;45.28
64158;BME280;50449;51.528;5.076;2023-04-27T01:04:11;101953.97;;;14.34;45.40
64158;BME280;50449;51.528;5.076;2023-04-27T01:06:36;101958.56;;;14.33;45.21
64158;BME280;50449;51.528;5.076;2023-04-27T01:09:04;101959.88;;;14.31;45.28
64158;BME280;50449;51.528;5.076;2023-04-27T01:11:29;101961.19;;;14.28;45.62
64158;BME280;50449;51.528;5.076;2023-04-27T01:13:55;101958.72;;;14.26;45.14
64158;BME280;50449;51.528;5.076;2023-04-27T01:16:21;101958.94;;;14.25;45.15
64158;BME280;50449;51.528;5.076;2023-04-27T01:18:46;101960.25;;;14.22;45.26
64158;BME280;50449;51.528;5.076;2023-04-27T01:21:12;101961.31;;;14.21;45.34
64158;BME280;50449;51.528;5.076;2023-04-27T01:23:37;101951.75;;;14.19;45.21
64158;BME280;50449;51.528;5.076;2023-04-27T01:26:03;101958.22;;;14.18;45.22
64158;BME280;50449;51.528;5.076;2023-04-27T01:28:28;101955.78;;;14.16;45.25
64158;BME280;50449;51.528;5.076;2023-04-27T01:30:54;101956.00;;;14.15;45.24
64158;BME280;50449;51.528;5.076;2023-04-27T01:33:19;101960.00;;;14.12;45.33
64158;BME280;50449;51.528;5.076;2023-04-27T01:35:45;101955.66;;;14.11;45.21
64158;BME280;50449;51.528;5.076;2023-04-27T01:38:11;101951.53;;;14.09;45.29
64158;BME280;50449;51.528;5.076;2023-04-27T01:40:36;101949.03;;;14.07;45.12
64158;BME280;50449;51.528;5.076;2023-04-27T01:43:02;101953.88;;;14.05;45.35
64158;BME280;50449;51.528;5.076;2023-04-27T01:45:27;101948.66;;;14.03;45.24
64158;BME280;50449;51.528;5.076;2023-04-27T01:47:53;101952.44;;;14.02;45.24
64158;BME280;50449;51.528;5.076;2023-04-27T01:50:19;101949.38;;;13.99;45.28
64158;BME280;50449;51.528;5.076;2023-04-27T01:52:45;101939.56;;;13.98;45.09
64158;BME280;50449;51.528;5.076;2023-04-27T01:55:10;101944.41;;;13.96;45.38
64158;BME280;50449;51.528;5.076;2023-04-27T01:57:36;101941.94;;;13.94;45.18
64158;BME280;50449;51.528;5.076;2023-04-27T02:00:02;101942.16;;;13.93;45.27
64158;BME280;50449;51.528;5.076;2023-04-27T02:02:29;101941.56;;;13.91;45.04
64158;BME280;50449;51.528;5.076;2023-04-27T02:04:54;101933.69;;;13.89;45.25
64158;BME280;50449;51.528;5.076;2023-04-27T02:07:20;101935.78;;;13.87;45.28
64158;BME280;50449;51.528;5.076;2023-04-27T02:09:45;101934.97;;;13.87;45.22
64158;BME280;50449;51.528;5.076;2023-04-27T02:12:11;101930.84;;;13.84;45.25
64158;BME280;50449;51.528;5.076;2023-04-27T02:14:36;101940.88;;;13.83;45.13
64158;BME280;50449;51.528;5.076;2023-04-27T02:17:02;101931.31;;;13.81;45.17
64158;BME280;50449;51.528;5.076;2023-04-27T02:19:27;101922.56;;;13.79;45.35
64158;BME280;50449;51.528;5.076;2023-04-27T02:21:53;101926.31;;;13.78;45.23
64158;BME280;50449;51.528;5.076;2023-04-27T02:24:18;101920.34;;;13.76;45.23
64158;BME280;50449;51.528;5.076;2023-04-27T02:26:43;101917.84;;;13.74;45.11
64158;BME280;50449;51.528;5.076;2023-04-27T02:29:10;101916.44;;;13.72;45.31
64158;BME280;50449;51.528;5.076;2023-04-27T02:31:35;101917.47;;;13.71;45.14
64158;BME280;50449;51.528;5.076;2023-04-27T02:34:00;101920.44;;;13.69;45.10
64158;BME280;50449;51.528;5.076;2023-04-27T02:36:26;101921.47;;;13.68;45.18
64158;BME280;50449;51.528;5.076;2023-04-27T02:38:52;101914.63;;;13.66;45.01
64158;BME280;50449;51.528;5.076;2023-04-27T02:41:17;101915.94;;;13.63;44.93
64158;BME280;50449;51.528;5.076;2023-04-27T02:43:43;101909.69;;;13.62;45.14
64158;BME280;50449;51.528;5.076;2023-04-27T02:46:08;101912.63;;;13.61;44.95
64158;BME280;50449;51.528;5.076;2023-04-27T02:48:33;101917.47;;;13.59;45.08
64158;BME280;50449;51.528;5.076;2023-04-27T02:51:02;101910.38;;;13.58;45.14
64158;BME280;50449;51.528;5.076;2023-04-27T02:53:28;101921.97;;;13.53;45.04
64158;BME280;50449;51.528;5.076;2023-04-27T02:55:53;101913.22;;;13.51;44.96
64158;BME280;50449;51.528;5.076;2023-04-27T02:58:18;101909.91;;;13.49;45.15
64158;BME280;50449;51.528;5.076;2023-04-27T03:00:44;101912.00;;;13.47;45.07
64158;BME280;50449;51.528;5.076;2023-04-27T03:03:10;101916.63;;;13.47;45.06
64158;BME280;50449;51.528;5.076;2023-04-27T03:05:35;101911.41;;;13.45;44.99
64158;BME280;50449;51.528;5.076;2023-04-27T03:08:01;101915.19;;;13.44;45.07
64158;BME280;50449;51.528;5.076;2023-04-27T03:10:27;101915.44;;;13.42;45.10
64158;BME280;50449;51.528;5.076;2023-04-27T03:12:52;101912.72;;;13.42;45.00
64158;BME280;50449;51.528;5.076;2023-04-27T03:15:18;101915.91;;;13.39;44.97
64158;BME280;50449;51.528;5.076;2023-04-27T03:17:43;101918.84;;;13.38;45.20
64158;BME280;50449;51.528;5.076;2023-04-27T03:20:09;101915.53;;;13.36;45.11
64158;BME280;50449;51.528;5.076;2023-04-27T03:22:35;101921.19;;;13.34;45.17
64158;BME280;50449;51.528;5.076;2023-04-27T03:25:01;101916.84;;;13.33;45.07
64158;BME280;50449;51.528;5.076;2023-04-27T03:27:27;101917.88;;;13.32;45.29
64158;BME280;50449;51.528;5.076;2023-04-27T03:29:53;101927.91;;;13.32;44.93
64158;BME280;50449;51.528;5.076;2023-04-27T03:32:18;101926.50;;;13.29;45.02
64158;BME280;50449;51.528;5.076;2023-04-27T03:34:44;101926.72;;;13.28;45.08
64158;BME280;50449;51.528;5.076;2023-04-27T03:37:09;101933.41;;;13.25;45.19
64158;BME280;50449;51.528;5.076;2023-04-27T03:39:35;101935.28;;;13.25;45.06
64158;BME280;50449;51.528;5.076;2023-04-27T03:42:00;101930.94;;;13.24;45.16
64158;BME280;50449;51.528;5.076;2023-04-27T03:44:26;101935.75;;;13.21;44.94
64158;BME280;50449;51.528;5.076;2023-04-27T03:46:52;101932.44;;;13.19;45.09
64158;BME280;50449;51.528;5.076;2023-04-27T03:49:17;101936.22;;;13.18;45.07
64158;BME280;50449;51.528;5.076;2023-04-27T03:51:43;101933.72;;;13.17;45.00
64158;BME280;50449;51.528;5.076;2023-04-27T03:54:08;101943.97;;;13.15;45.00
64158;BME280;50449;51.528;5.076;2023-04-27T03:56:34;101939.63;;;13.14;44.91
64158;BME280;50449;51.528;5.076;2023-04-27T03:59:01;101938.19;;;13.11;45.01
64158;BME280;50449;51.528;5.076;2023-04-27T04:01:27;101931.97;;;13.11;45.06
64158;BME280;50449;51.528;5.076;2023-04-27T04:03:52;101933.00;;;13.10;45.01
64158;BME280;50449;51.528;5.076;2023-04-27T04:06:18;101934.28;;;13.07;45.10
64158;BME280;50449;51.528;5.076;2023-04-27T04:08:44;101940.78;;;13.06;44.99
64158;BME280;50449;51.528;5.076;2023-04-27T04:11:10;101942.88;;;13.04;45.02
64158;BME280;50449;51.528;5.076;2023-04-27T04:13:35;101938.53;;;13.03;44.88
64158;BME280;50449;51.528;5.076;2023-04-27T04:16:05;101941.47;;;13.02;44.98
64158;BME280;50449;51.528;5.076;2023-04-27T04:18:31;101933.78;;;12.98;45.07
64158;BME280;50449;51.528;5.076;2023-04-27T04:20:57;101936.72;;;12.97;45.08
64158;BME280;50449;51.528;5.076;2023-04-27T04:23:22;101932.59;;;12.94;45.14
64158;BME280;50449;51.528;5.076;2023-04-27T04:25:48;101946.38;;;12.93;45.16
64158;BME280;50449;51.528;5.076;2023-04-27T04:28:14;101943.06;;;12.91;45.14
64158;BME280;50449;51.528;5.076;2023-04-27T04:30:39;101944.13;;;12.90;45.25
64158;BME280;50449;51.528;5.076;2023-04-27T04:33:05;101949.78;;;12.88;45.06
64158;BME280;50449;51.528;5.076;2023-04-27T04:35:31;101950.81;;;12.87;45.29
64158;BME280;50449;51.528;5.076;2023-04-27T04:37:59;101951.88;;;12.86;44.99
64158;BME280;50449;51.528;5.076;2023-04-27T04:40:25;101959.41;;;12.84;45.03
64158;BME280;50449;51.528;5.076;2023-04-27T04:42:50;101960.50;;;12.83;45.07
64158;BME280;50449;51.528;5.076;2023-04-27T04:45:17;101957.16;;;12.81;45.10
64158;BME280;50449;51.528;5.076;2023-04-27T04:47:42;101955.53;;;12.80;45.09
64158;BME280;50449;51.528;5.076;2023-04-27T04:50:08;101960.09;;;12.80;45.16
64158;BME280;50449;51.528;5.076;2023-04-27T04:52:37;101964.09;;;12.77;44.99
64158;BME280;50449;51.528;5.076;2023-04-27T04:55:03;101967.03;;;12.75;44.93
64158;BME280;50449;51.528;5.076;2023-04-27T04:57:29;101962.66;;;12.74;45.06
64158;BME280;50449;51.528;5.076;2023-04-27T04:59:55;101968.09;;;12.74;45.23
64158;BME280;50449;51.528;5.076;2023-04-27T05:02:20;101968.34;;;12.73;45.11
64158;BME280;50449;51.528;5.076;2023-04-27T05:04:46;101965.84;;;12.71;45.10
64158;BME280;50449;51.528;5.076;2023-04-27T05:07:11;101972.31;;;12.70;44.81
64158;BME280;50449;51.528;5.076;2023-04-27T05:09:37;101967.13;;;12.69;44.99
64158;BME280;50449;51.528;5.076;2023-04-27T05:12:03;101967.34;;;12.67;45.00
64158;BME280;50449;51.528;5.076;2023-04-27T05:14:28;101973.81;;;12.66;45.01
64158;BME280;50449;51.528;5.076;2023-04-27T05:16:53;101969.47;;;12.65;45.14
64158;BME280;50449;51.528;5.076;2023-04-27T05:19:19;101968.84;;;12.63;45.02
64158;BME280;50449;51.528;5.076;2023-04-27T05:21:45;101978.03;;;12.62;45.09
64158;BME280;50449;51.528;5.076;2023-04-27T05:24:11;101977.19;;;12.62;45.03
64158;BME280;50449;51.528;5.076;2023-04-27T05:26:37;101974.75;;;12.60;45.04
64158;BME280;50449;51.528;5.076;2023-04-27T05:29:02;101983.09;;;12.59;44.89
64158;BME280;50449;51.528;5.076;2023-04-27T05:31:28;101985.19;;;12.56;45.26
64158;BME280;50449;51.528;5.076;2023-04-27T05:33:53;101983.53;;;12.55;44.84
64158;BME280;50449;51.528;5.076;2023-04-27T05:36:19;101984.81;;;12.53;45.07
64158;BME280;50449;51.528;5.076;2023-04-27T05:38:44;101983.16;;;12.52;45.13
64158;BME280;50449;51.528;5.076;2023-04-27T05:41:09;101988.56;;;12.52;45.06
64158;BME280;50449;51.528;5.076;2023-04-27T05:43:35;101992.56;;;12.49;45.01
64158;BME280;50449;51.528;5.076;2023-04-27T05:46:02;101991.53;;;12.50;45.16
64158;BME280;50449;51.528;5.076;2023-04-27T05:48:28;101991.72;;;12.49;45.16
64158;BME280;50449;51.528;5.076;2023-04-27T05:51:01;101986.31;;;12.49;45.14
64158;BME280;50449;51.528;5.076;2023-04-27T05:53:27;101983.00;;;12.47;45.04
64158;BME280;50449;51.528;5.076;2023-04-27T05:55:52;101984.88;;;12.46;45.10
64158;BME280;50449;51.528;5.076;2023-04-27T05:58:18;101989.47;;;12.46;45.07
64158;BME280;50449;51.528;5.076;2023-04-27T06:00:43;101988.66;;;12.45;45.16
64158;BME280;50449;51.528;5.076;2023-04-27T06:03:09;101988.66;;;12.45;45.10
64158;BME280;50449;51.528;5.076;2023-04-27T06:05:34;101994.06;;;12.45;45.18
64158;BME280;50449;51.528;5.076;2023-04-27T06:08:00;101987.84;;;12.45;44.93
64158;BME280;50449;51.528;5.076;2023-04-27T06:10:25;101988.66;;;12.45;45.06
64158;BME280;50449;51.528;5.076;2023-04-27T06:12:51;101978.03;;;12.44;45.13
64158;BME280;50449;51.528;5.076;2023-04-27T06:15:16;101974.28;;;12.45;45.24
64158;BME280;50449;51.528;5.076;2023-04-27T06:17:41;101985.13;;;12.45;45.16
64158;BME280;50449;51.528;5.076;2023-04-27T06:20:10;101990.53;;;12.45;45.19
64158;BME280;50449;51.528;5.076;2023-04-27T06:22:36;101994.91;;;12.46;45.22
64158;BME280;50449;51.528;5.076;2023-04-27T06:25:03;101998.44;;;12.46;44.98
64158;BME280;50449;51.528;5.076;2023-04-27T06:27:32;101994.06;;;12.45;45.24
64158;BME280;50449;51.528;5.076;2023-04-27T06:29:58;102006.56;;;12.46;45.24
64158;BME280;50449;51.528;5.076;2023-04-27T06:32:23;101993.00;;;12.46;45.25
64158;BME280;50449;51.528;5.076;2023-04-27T06:34:49;101993.84;;;12.47;45.33
64158;BME280;50449;51.528;5.076;2023-04-27T06:37:15;101988.41;;;12.47;45.27
64158;BME280;50449;51.528;5.076;2023-04-27T06:39:44;101990.31;;;12.46;45.23
64158;BME280;50449;51.528;5.076;2023-04-27T06:42:09;101986.78;;;12.46;45.28
64158;BME280;50449;51.528;5.076;2023-04-27T06:44:35;101994.91;;;12.46;45.22
64158;BME280;50449;51.528;5.076;2023-04-27T06:47:01;101989.47;;;12.46;45.16
64158;BME280;50449;51.528;5.076;2023-04-27T06:49:26;101991.97;;;12.47;45.45
64158;BME280;50449;51.528;5.076;2023-04-27T06:51:51;101988.19;;;12.48;45.27
64158;BME280;50449;51.528;5.076;2023-04-27T06:54:17;101976.09;;;12.51;45.33
64158;BME280;50449;51.528;5.076;2023-04-27T06:56:42;101983.16;;;12.52;45.36
64158;BME280;50449;51.528;5.076;2023-04-27T06:59:09;101984.22;;;12.51;45.53
64158;BME280;50449;51.528;5.076;2023-04-27T07:01:34;101975.88;;;12.52;45.44
64158;BME280;50449;51.528;5.076;2023-04-27T07:04:00;101979.41;;;12.53;45.51
64158;BME280;50449;51.528;5.076;2023-04-27T07:06:25;101973.97;;;12.53;45.59
64158;BME280;50449;51.528;5.076;2023-04-27T07:08:50;101978.56;;;12.52;45.76
64158;BME280;50449;51.528;5.076;2023-04-27T07:11:16;101991.88;;;12.54;45.79
64158;BME280;50449;51.528;5.076;2023-04-27T07:13:42;101985.66;;;12.53;45.59
64158;BME280;50449;51.528;5.076;2023-04-27T07:16:07;101984.38;;;12.56;45.76
64158;BME280;50449;51.528;5.076;2023-04-27T07:18:33;101983.09;;;12.59;45.89
64158;BME280;50449;51.528;5.076;2023-04-27T07:20:58;101980.16;;;12.60;45.67
64158;BME280;50449;51.528;5.076;2023-04-27T07:23:24;101984.31;;;12.63;45.83
64158;BME280;50449;51.528;5.076;2023-04-27T07:25:49;101978.63;;;12.64;46.23
64158;BME280;50449;51.528;5.076;2023-04-27T07:28:16;101983.59;;;12.67;45.95
64158;BME280;50449;51.528;5.076;2023-04-27T07:30:41;101979.59;;;12.70;45.97
64158;BME280;50449;51.528;5.076;2023-04-27T07:33:07;101987.31;;;12.73;46.25
64158;BME280;50449;51.528;5.076;2023-04-27T07:35:34;101988.75;;;12.75;46.06
64158;BME280;50449;51.528;5.076;2023-04-27T07:38:00;101991.00;;;12.78;46.22
64158;BME280;50449;51.528;5.076;2023-04-27T07:40:29;101980.75;;;12.81;46.00
64158;BME280;50449;51.528;5.076;2023-04-27T07:42:55;101981.13;;;12.84;46.44
64158;BME280;50449;51.528;5.076;2023-04-27T07:45:21;101982.31;;;12.88;46.52
64158;BME280;50449;51.528;5.076;2023-04-27T07:47:47;101976.44;;;12.91;46.34
64158;BME280;50449;51.528;5.076;2023-04-27T07:50:12;101972.22;;;12.95;46.38
64158;BME280;50449;51.528;5.076;2023-04-27T07:52:42;101981.31;;;13.01;46.71
64158;BME280;50449;51.528;5.076;2023-04-27T07:55:07;101975.44;;;13.04;46.56
64158;BME280;50449;51.528;5.076;2023-04-27T07:57:34;101977.25;;;13.10;46.57
64158;BME280;50449;51.528;5.076;2023-04-27T07:59:59;101980.31;;;13.14;46.57
64158;BME280;50449;51.528;5.076;2023-04-27T08:02:26;101983.38;;;13.17;46.63
64158;BME280;50449;51.528;5.076;2023-04-27T08:04:54;101985.19;;;13.24;46.80
64158;BME280;50449;51.528;5.076;2023-04-27T08:07:19;101982.66;;;13.29;46.59
64158;BME280;50449;51.528;5.076;2023-04-27T08:09:45;101988.22;;;13.34;46.65
64158;BME280;50449;51.528;5.076;2023-04-27T08:12:11;101992.09;;;13.38;46.93
64158;BME280;50449;51.528;5.076;2023-04-27T08:14:36;101984.94;;;13.44;46.96
64158;BME280;50449;51.528;5.076;2023-04-27T08:17:01;101977.75;;;13.49;46.89
64158;BME280;50449;51.528;5.076;2023-04-27T08:19:27;101978.72;;;13.55;46.63
64158;BME280;50449;51.528;5.076;2023-04-27T08:21:52;101957.13;;;13.60;46.77
64158;BME280;50449;51.528;5.076;2023-04-27T08:24:18;101961.63;;;13.66;46.71
64158;BME280;50449;51.528;5.076;2023-04-27T08:26:44;101960.91;;;13.71;46.92
64158;BME280;50449;51.528;5.076;2023-04-27T08:29:10;101958.09;;;13.77;47.06
64158;BME280;50449;51.528;5.076;2023-04-27T08:31:35;101949.25;;;13.82;46.92
64158;BME280;50449;51.528;5.076;2023-04-27T08:34:01;101959.16;;;13.88;47.34
64158;BME280;50449;51.528;5.076;2023-04-27T08:36:27;101965.31;;;13.95;46.73
64158;BME280;50449;51.528;5.076;2023-04-27T08:38:53;101961.66;;;14.01;46.65
64158;BME280;50449;51.528;5.076;2023-04-27T08:43:45;101958.72;;;14.15;46.86
64158;BME280;50449;51.528;5.076;2023-04-27T08:46:10;101952.56;;;14.19;46.96
64158;BME280;50449;51.528;5.076;2023-04-27T08:48:36;101947.25;;;14.24;47.04
64158;BME280;50449;51.528;5.076;2023-04-27T08:51:02;101949.00;;;14.31;47.09
64158;BME280;50449;51.528;5.076;2023-04-27T08:53:34;101950.78;;;14.37;47.06
64158;BME280;50449;51.528;5.076;2023-04-27T08:56:00;101957.16;;;14.42;47.16
64158;BME280;50449;51.528;5.076;2023-04-27T08:58:35;101943.44;;;14.49;47.13
64158;BME280;50449;51.528;5.076;2023-04-27T09:01:04;101944.41;;;14.55;47.14
64158;BME280;50449;51.528;5.076;2023-04-27T09:03:31;101947.56;;;14.63;47.04
64158;BME280;50449;51.528;5.076;2023-04-27T09:05:56;101959.94;;;14.71;47.26
64158;BME280;50449;51.528;5.076;2023-04-27T09:08:21;101956.88;;;14.79;46.92
64158;BME280;50449;51.528;5.076;2023-04-27T09:10:49;101943.72;;;14.88;47.15
64158;BME280;50449;51.528;5.076;2023-04-27T09:13:15;101954.19;;;14.96;47.00
64158;BME280;50449;51.528;5.076;2023-04-27T09:15:48;101952.97;;;15.04;46.72
64158;BME280;50449;51.528;5.076;2023-04-27T09:18:23;101952.84;;;15.10;46.79
64158;BME280;50449;51.528;5.076;2023-04-27T09:20:50;101947.00;;;15.19;46.82
64158;BME280;50449;51.528;5.076;2023-04-27T09:23:25;101946.03;;;15.25;46.67
64158;BME280;50449;51.528;5.076;2023-04-27T09:25:52;101952.13;;;15.32;46.50
64158;BME280;50449;51.528;5.076;2023-04-27T09:28:18;101948.44;;;15.38;46.52
64158;BME280;50449;51.528;5.076;2023-04-27T09:30:51;101941.78;;;15.46;46.64
64158;BME280;50449;51.528;5.076;2023-04-27T09:33:22;101946.22;;;15.52;46.67
64158;BME280;50449;51.528;5.076;2023-04-27T09:35:48;101935.19;;;15.58;46.37
64158;BME280;50449;51.528;5.076;2023-04-27T09:38:16;101937.16;;;15.63;46.45
64158;BME280;50449;51.528;5.076;2023-04-27T09:40:42;101941.41;;;15.71;46.94
64158;BME280;50449;51.528;5.076;2023-04-27T09:43:08;101929.50;;;15.77;46.51
64158;BME280;50449;51.528;5.076;2023-04-27T09:45:35;101935.88;;;15.83;46.41
64158;BME280;50449;51.528;5.076;2023-04-27T09:48:03;101934.88;;;15.89;46.35
64158;BME280;50449;51.528;5.076;2023-04-27T09:50:30;101929.25;;;15.95;46.51
64158;BME280;50449;51.528;5.076;2023-04-27T09:52:55;101925.53;;;16.01;46.47
64158;BME280;50449;51.528;5.076;2023-04-27T09:55:26;101927.00;;;16.09;46.64
64158;BME280;50449;51.528;5.076;2023-04-27T10:08:59;101928.69;;;16.32;46.63
64158;BME280;50449;51.528;5.076;2023-04-27T10:11:36;101931.22;;;16.39;46.66
64158;BME280;50449;51.528;5.076;2023-04-27T10:14:08;101922.88;;;16.46;46.90
64158;BME280;50449;51.528;5.076;2023-04-27T10:16:51;101934.66;;;16.51;46.23
64158;BME280;50449;51.528;5.076;2023-04-27T10:19:17;101925.72;;;16.56;46.21
64158;BME280;50449;51.528;5.076;2023-04-27T10:24:39;101937.00;;;16.64;46.43
64158;BME280;50449;51.528;5.076;2023-04-27T10:27:07;101928.06;;;16.69;46.41
64158;BME280;50449;51.528;5.076;2023-04-27T10:29:39;101933.34;;;16.76;46.40
64158;BME280;50449;51.528;5.076;2023-04-27T10:32:11;101926.28;;;16.80;46.88
64158;BME280;50449;51.528;5.076;2023-04-27T10:34:38;101924.44;;;16.85;46.58
64158;BME280;50449;51.528;5.076;2023-04-27T10:37:10;101916.31;;;16.91;46.13
64158;BME280;50449;51.528;5.076;2023-04-27T10:39:43;101910.91;;;16.96;46.13
64158;BME280;50449;51.528;5.076;2023-04-27T10:42:09;101905.50;;;17.01;46.25
64158;BME280;50449;51.528;5.076;2023-04-27T10:44:36;101893.00;;;17.05;46.03
64158;BME280;50449;51.528;5.076;2023-04-27T10:47:12;101893.31;;;17.08;45.62
64158;BME280;50449;51.528;5.076;2023-04-27T10:49:38;101899.88;;;17.13;45.81
64158;BME280;50449;51.528;5.076;2023-04-27T10:52:04;101900.22;;;17.16;45.67
64158;BME280;50449;51.528;5.076;2023-04-27T10:54:30;101895.06;;;17.20;45.77
64158;BME280;50449;51.528;5.076;2023-04-27T10:59:29;101879.28;;;17.27;45.41
64158;BME280;50449;51.528;5.076;2023-04-27T11:01:54;101879.56;;;17.30;45.40
64158;BME280;50449;51.528;5.076;2023-04-27T11:04:20;101884.25;;;17.35;45.73
64158;BME280;50449;51.528;5.076;2023-04-27T11:06:45;101885.66;;;17.38;45.67
64158;BME280;50449;51.528;5.076;2023-04-27T11:09:12;101870.63;;;17.40;45.69
64158;BME280;50449;51.528;5.076;2023-04-27T11:11:42;101876.16;;;17.45;45.46
64158;BME280;50449;51.528;5.076;2023-04-27T11:14:08;101879.44;;;17.47;45.46
64158;BME280;50449;51.528;5.076;2023-04-27T11:16:33;101880.56;;;17.51;45.35
64158;BME280;50449;51.528;5.076;2023-04-27T11:19:05;101874.84;;;17.53;44.33
64158;BME280;50449;51.528;5.076;2023-04-27T11:21:31;101871.84;;;17.55;44.70
64158;BME280;50449;51.528;5.076;2023-04-27T11:24:03;101871.06;;;17.59;45.12
64158;BME280;50449;51.528;5.076;2023-04-27T11:26:29;101860.44;;;17.63;45.35
64158;BME280;50449;51.528;5.076;2023-04-27T11:28:58;101861.81;;;17.65;45.14
64158;BME280;50449;51.528;5.076;2023-04-27T11:31:36;101864.84;;;17.69;44.69
64158;BME280;50449;51.528;5.076;2023-04-27T11:34:02;101867.31;;;17.70;44.90
64158;BME280;50449;51.528;5.076;2023-04-27T11:36:28;101858.03;;;17.71;45.50
64158;BME280;50449;51.528;5.076;2023-04-27T11:38:57;101861.31;;;17.73;45.38
64158;BME280;50449;51.528;5.076;2023-04-27T11:41:32;101856.97;;;17.78;45.41
64158;BME280;50449;51.528;5.076;2023-04-27T11:44:03;101859.78;;;17.83;45.12
64158;BME280;50449;51.528;5.076;2023-04-27T11:46:29;101859.53;;;17.84;45.42
64158;BME280;50449;51.528;5.076;2023-04-27T11:49:00;101859.81;;;17.88;45.49
64158;BME280;50449;51.528;5.076;2023-04-27T11:51:25;101865.56;;;17.91;45.36
64158;BME280;50449;51.528;5.076;2023-04-27T11:53:53;101862.03;;;17.96;45.79
64158;BME280;50449;51.528;5.076;2023-04-27T11:56:18;101856.03;;;17.99;45.28
64158;BME280;50449;51.528;5.076;2023-04-27T11:58:44;101854.41;;;18.03;45.65
64158;BME280;50449;51.528;5.076;2023-04-27T12:01:09;101855.78;;;18.06;45.21
64158;BME280;50449;51.528;5.076;2023-04-27T12:03:36;101845.69;;;18.06;45.29
64158;BME280;50449;51.528;5.076;2023-04-27T12:06:01;101833.13;;;18.10;45.01
64158;BME280;50449;51.528;5.076;2023-04-27T12:08:27;101841.06;;;18.12;44.32
64158;BME280;50449;51.528;5.076;2023-04-27T12:10:52;101831.50;;;18.14;44.78
64158;BME280;50449;51.528;5.076;2023-04-27T12:13:18;101833.16;;;18.15;44.59
64158;BME280;50449;51.528;5.076;2023-04-27T12:15:43;101831.78;;;18.18;44.73
64158;BME280;50449;51.528;5.076;2023-04-27T12:18:08;101826.88;;;18.20;44.59
64158;BME280;50449;51.528;5.076;2023-04-27T12:20:34;101829.88;;;18.24;44.24
64158;BME280;50449;51.528;5.076;2023-04-27T12:23:00;101834.00;;;18.26;44.25
64158;BME280;50449;51.528;5.076;2023-04-27T12:25:25;101835.13;;;18.30;44.07
64158;BME280;50449;51.528;5.076;2023-04-27T12:27:51;101831.03;;;18.33;44.09
64158;BME280;50449;51.528;5.076;2023-04-27T12:30:17;101838.69;;;18.36;44.04
64158;BME280;50449;51.528;5.076;2023-04-27T12:32:43;101835.16;;;18.41;43.69
64158;BME280;50449;51.528;5.076;2023-04-27T12:35:08;101831.06;;;18.43;43.92
64158;BME280;50449;51.528;5.076;2023-04-27T12:37:35;101836.00;;;18.46;43.81
64158;BME280;50449;51.528;5.076;2023-04-27T12:40:01;101828.09;;;18.50;43.57
64158;BME280;50449;51.528;5.076;2023-04-27T12:42:27;101820.97;;;18.54;43.40
64158;BME280;50449;51.528;5.076;2023-04-27T12:44:53;101825.88;;;18.57;43.82
64158;BME280;50449;51.528;5.076;2023-04-27T12:47:22;101817.97;;;18.60;44.03
64158;BME280;50449;51.528;5.076;2023-04-27T12:49:47;101822.66;;;18.65;43.50
64158;BME280;50449;51.528;5.076;2023-04-27T12:52:13;101816.63;;;18.68;43.52
64158;BME280;50449;51.528;5.076;2023-04-27T12:54:38;101812.25;;;18.72;43.45
64158;BME280;50449;51.528;5.076;2023-04-27T12:57:04;101804.09;;;18.77;43.87
64158;BME280;50449;51.528;5.076;2023-04-27T12:59:34;101805.16;;;18.81;43.62
64158;BME280;50449;51.528;5.076;2023-04-27T13:02:00;101808.19;;;18.85;43.57
64158;BME280;50449;51.528;5.076;2023-04-27T13:04:27;101811.75;;;18.91;43.35